Terminal Aerodrome Forecast
Issued by NWS

Home | Current Version | Previous Version | Text Only | Print | Product List | Glossary On
Versions: 1 2 3 4 5 6 7 8 9 10 11 12 13 14
000
FTUS44 KLZK 212338
TAFPBF
TAF
KPBF 212338Z 2200/2224 VRB05KT P6SM SCT250
     FM221500 23006KT P6SM FEW050 BKN250
     FM222000 23008G15KT P6SM VCTS SCT050CB BKN100 OVC250 PROB30
      2220/2224 5SM -TSRA OVC050CB=

USA.gov is the U.S. government's official web portal to all federal, state and local government web resources and services.